Time;durP1;ratioP1;P1;durP2;ratioP2;P2;SDS_P1;SDS_P2;PMS_P1;PMS_P2;Temp;Humidity;BMP_temperature;BMP_pressure;BME280_temperature;BME280_humidity;BME280_pressure;Samples;Min_cycle;Max_cycle;Signal;HPM_P1;HPM_P2
2024/01/04 00:00:01;;;;;;;10.00;2.10;;;8.80;99.90;;;;;;6322013;28;20043;-86
2024/01/04 00:03:03;;;;;;;7.32;1.85;;;8.80;99.90;;;;;;6320107;28;20047;-87
2024/01/04 00:06:04;;;;;;;13.07;2.20;;;8.90;99.90;;;;;;6319126;28;20059;-87
2024/01/04 00:09:06;;;;;;;9.85;1.92;;;8.90;99.90;;;;;;6302463;28;20887;-87
2024/01/04 00:12:09;;;;;;;11.73;1.83;;;8.90;99.90;;;;;;6319327;28;20063;-87
2024/01/04 00:15:11;;;;;;;8.20;2.05;;;9.10;99.90;;;;;;6299155;28;20048;-87
2024/01/04 00:18:13;;;;;;;6.80;1.77;;;8.90;99.90;;;;;;6318983;28;20059;-86
2024/01/04 00:21:15;;;;;;;10.68;1.92;;;8.90;99.90;;;;;;6320027;28;20158;-86
2024/01/04 00:24:16;;;;;;;9.88;1.98;;;8.90;99.90;;;;;;6319954;28;20503;-86
2024/01/04 00:27:18;;;;;;;8.93;1.70;;;8.80;99.90;;;;;;6301969;28;20040;-87
2024/01/04 00:30:20;;;;;;;9.15;2.03;;;8.90;99.90;;;;;;6318067;28;20056;-86
2024/01/04 00:33:21;;;;;;;6.38;1.75;;;8.90;99.90;;;;;;6302256;28;20395;-87
2024/01/04 00:36:23;;;;;;;9.70;1.65;;;8.90;99.90;;;;;;6318340;28;20059;-85
2024/01/04 00:39:25;;;;;;;9.73;1.77;;;8.80;99.90;;;;;;6302212;28;20138;-88
2024/01/04 00:42:27;;;;;;;7.75;1.50;;;8.80;99.90;;;;;;6319482;28;20056;-85
2024/01/04 00:45:28;;;;;;;12.30;1.73;;;8.80;99.90;;;;;;6326819;28;20058;-84
2024/01/04 00:48:30;;;;;;;8.45;1.70;;;8.80;99.90;;;;;;6344345;28;20052;-88
2024/01/04 00:51:32;;;;;;;7.15;1.40;;;8.80;99.90;;;;;;6326998;28;20415;-87
2024/01/04 00:54:34;;;;;;;7.28;1.40;;;8.80;99.90;;;;;;6327011;28;20054;-84
2024/01/04 00:57:35;;;;;;;6.90;1.60;;;9.10;99.90;;;;;;6327123;28;20040;-86
2024/01/04 01:00:37;;;;;;;9.32;1.30;;;8.70;99.90;;;;;;6325491;28;20498;-87
2024/01/04 01:03:39;;;;;;;4.95;1.20;;;8.90;99.90;;;;;;6326869;28;20451;-85
2024/01/04 01:06:40;;;;;;;6.47;1.42;;;8.70;99.90;;;;;;6327240;28;20064;-87
2024/01/04 01:09:42;;;;;;;5.32;1.40;;;8.60;99.90;;;;;;6326956;28;20055;-86
2024/01/04 01:12:44;;;;;;;6.70;1.30;;;8.50;99.90;;;;;;6344683;28;20047;-87
2024/01/04 01:15:45;;;;;;;10.05;1.50;;;8.40;99.90;;;;;;6319298;28;20797;-86
2024/01/04 01:18:47;;;;;;;6.65;1.33;;;8.40;99.90;;;;;;6319108;28;20052;-85
2024/01/04 01:21:49;;;;;;;8.73;1.75;;;8.30;99.90;;;;;;6343864;28;20134;-85
2024/01/04 01:24:51;;;;;;;7.80;1.48;;;8.30;99.90;;;;;;6327260;28;20055;-85
2024/01/04 01:27:52;;;;;;;8.00;1.58;;;8.40;99.90;;;;;;6327207;28;20048;-86
2024/01/04 01:30:54;;;;;;;7.60;1.35;;;8.40;99.90;;;;;;6327267;28;20130;-86
2024/01/04 01:33:56;;;;;;;6.05;1.30;;;8.40;99.90;;;;;;6301837;28;20132;-87
2024/01/04 01:36:58;;;;;;;6.95;1.30;;;8.30;99.90;;;;;;6348240;28;20051;-87
2024/01/04 01:39:59;;;;;;;5.25;1.13;;;10.40;99.90;;;;;;6330976;28;20051;-86
2024/01/04 01:43:01;;;;;;;4.80;1.00;;;8.40;99.90;;;;;;6328687;28;20497;-86
2024/01/04 01:46:03;;;;;;;7.53;1.25;;;8.50;99.90;;;;;;6330859;28;20055;-86
2024/01/04 01:49:04;;;;;;;5.25;1.23;;;8.60;99.90;;;;;;6331249;28;20070;-87
2024/01/04 01:52:06;;;;;;;7.78;1.10;;;8.60;99.90;;;;;;6330961;28;20146;-86
2024/01/04 01:55:09;;;;;;;4.38;1.00;;;8.70;99.90;;;;;;6348473;28;20058;-86
2024/01/04 01:58:11;;;;;;;6.15;1.25;;;8.70;99.90;;;;;;6329979;28;20151;-85
2024/01/04 02:01:13;;;;;;;5.72;1.38;;;8.70;99.90;;;;;;6318269;28;20052;-86
2024/01/04 02:04:15;;;;;;;3.72;1.13;;;8.70;99.90;;;;;;6330412;28;20494;-86
2024/01/04 02:07:16;;;;;;;4.22;0.98;;;8.70;99.90;;;;;;6329943;28;20055;-86
2024/01/04 02:10:18;;;;;;;6.10;1.15;;;8.80;99.90;;;;;;6348460;28;20124;-86
2024/01/04 02:13:20;;;;;;;4.75;1.00;;;8.70;99.90;;;;;;6345972;28;20055;-86
2024/01/04 02:16:21;;;;;;;5.10;0.93;;;8.80;99.90;;;;;;6329746;28;20830;-86
2024/01/04 02:19:23;;;;;;;7.78;1.33;;;8.80;99.90;;;;;;6330016;28;20058;-85
2024/01/04 02:22:25;;;;;;;5.75;1.15;;;8.80;99.90;;;;;;6330095;28;20047;-85
2024/01/04 02:25:26;;;;;;;6.38;0.93;;;8.80;99.90;;;;;;6348313;28;20056;-86
2024/01/04 02:28:28;;;;;;;7.43;1.15;;;8.90;99.90;;;;;;6328403;28;20061;-86
2024/01/04 02:31:30;;;;;;;6.57;1.30;;;8.90;99.90;;;;;;6330253;28;20494;-87
2024/01/04 02:34:32;;;;;;;6.53;1.10;;;8.90;99.90;;;;;;6347895;28;20055;-86
2024/01/04 02:37:34;;;;;;;6.43;1.02;;;8.90;99.90;;;;;;6329920;28;20047;-86
2024/01/04 02:40:35;;;;;;;4.32;0.90;;;9.30;99.90;;;;;;6345368;28;20043;-85
2024/01/04 02:43:37;;;;;;;8.15;1.55;;;8.90;99.90;;;;;;6323425;28;20060;-85
2024/01/04 02:46:39;;;;;;;6.22;0.93;;;8.80;99.90;;;;;;6346008;28;20040;-85
2024/01/04 02:49:40;;;;;;;4.72;1.10;;;8.80;99.90;;;;;;6328465;28;20628;-85
2024/01/04 02:52:43;;;;;;;10.18;1.52;;;8.80;99.90;;;;;;6346619;28;20408;-85
2024/01/04 02:55:44;;;;;;;7.05;1.17;;;8.80;99.90;;;;;;6346000;28;20052;-85
2024/01/04 02:58:46;;;;;;;9.00;1.40;;;8.90;99.90;;;;;;6325578;28;20078;-85
2024/01/04 03:01:48;;;;;;;6.78;1.30;;;8.80;99.90;;;;;;6327730;28;20044;-85
2024/01/04 03:04:50;;;;;;;3.85;1.02;;;9.00;99.90;;;;;;6345770;28;20606;-86
2024/01/04 03:07:52;;;;;;;8.60;1.45;;;8.80;99.90;;;;;;6327900;28;20555;-86
2024/01/04 03:10:53;;;;;;;6.78;1.38;;;8.80;99.90;;;;;;6346376;28;20047;-86
2024/01/04 03:13:55;;;;;;;8.80;1.52;;;8.80;99.90;;;;;;6343876;28;20130;-86
2024/01/04 03:16:57;;;;;;;4.65;1.08;;;8.80;99.90;;;;;;6327130;28;20514;-86
2024/01/04 03:19:58;;;;;;;7.82;1.35;;;8.80;99.90;;;;;;6327581;28;20055;-86
2024/01/04 03:23:00;;;;;;;7.80;1.40;;;8.80;99.90;;;;;;6326955;28;20056;-85
2024/01/04 03:26:02;;;;;;;5.50;1.15;;;8.70;99.90;;;;;;6326986;28;20055;-85
2024/01/04 03:29:04;;;;;;;9.07;1.58;;;9.00;99.90;;;;;;6342522;28;20047;-85
2024/01/04 03:32:05;;;;;;;8.27;1.63;;;8.60;99.90;;;;;;6327632;28;20052;-86
2024/01/04 03:35:08;;;;;;;11.70;1.58;;;8.50;99.90;;;;;;6345656;28;20055;-86
2024/01/04 03:38:10;;;;;;;9.48;1.50;;;8.60;99.90;;;;;;6345908;28;20055;-86
2024/01/04 03:41:11;;;;;;;7.15;1.33;;;8.60;99.90;;;;;;6325600;28;20262;-84
2024/01/04 03:44:13;;;;;;;8.93;1.75;;;8.50;99.90;;;;;;6309195;28;20062;-86
2024/01/04 03:47:15;;;;;;;7.00;1.30;;;8.40;99.90;;;;;;6301970;28;20129;-85
2024/01/04 03:50:16;;;;;;;6.90;1.45;;;8.40;99.90;;;;;;6319514;28;20051;-86
2024/01/04 03:53:18;;;;;;;7.00;1.52;;;8.30;99.90;;;;;;6319969;28;20059;-85
2024/01/04 03:56:20;;;;;;;15.27;1.77;;;8.20;99.90;;;;;;6318024;28;20051;-85
2024/01/04 03:59:21;;;;;;;9.30;1.60;;;8.20;99.90;;;;;;6305030;28;20418;-84
2024/01/04 04:02:23;;;;;;;11.55;1.65;;;8.20;99.90;;;;;;6319189;28;20055;-84
2024/01/04 04:05:24;;;;;;;11.90;2.17;;;8.10;99.90;;;;;;6317775;28;20137;-85
2024/01/04 04:08:26;;;;;;;7.78;1.40;;;8.10;99.90;;;;;;6320020;28;20051;-85
2024/01/04 04:11:28;;;;;;;15.05;2.20;;;8.00;99.90;;;;;;6318782;28;20051;-84
2024/01/04 04:14:33;;;;;;;11.02;1.50;;;7.90;99.90;;;;;;6316953;28;20052;-85
2024/01/04 04:17:35;;;;;;;16.15;2.05;;;7.90;99.90;;;;;;6309581;28;20045;-85
2024/01/04 04:20:37;;;;;;;10.35;1.40;;;7.80;99.90;;;;;;6333317;28;20467;-85
2024/01/04 04:23:39;;;;;;;13.82;2.22;;;7.80;99.90;;;;;;6318522;28;20232;-85
2024/01/04 04:26:40;;;;;;;13.10;1.88;;;7.70;99.90;;;;;;6318032;28;20090;-83
2024/01/04 04:29:42;;;;;;;15.15;2.17;;;7.70;99.90;;;;;;6317880;28;20060;-85
2024/01/04 04:32:44;;;;;;;13.32;1.63;;;7.60;99.90;;;;;;6300463;28;20574;-85
2024/01/04 04:35:46;;;;;;;12.57;2.10;;;8.00;99.90;;;;;;6317587;28;20052;-85
2024/01/04 04:39:02;;;;;;;10.35;1.73;;;7.50;99.90;;;;;;6277635;28;20495;-85
2024/01/04 04:42:03;;;;;;;11.48;1.90;;;7.80;99.90;;;;;;6318906;28;20048;-85
2024/01/04 04:45:05;;;;;;;12.35;2.42;;;7.50;99.90;;;;;;6324188;22;20447;-91
2024/01/04 04:48:07;;;;;;;15.80;2.13;;;7.40;99.90;;;;;;6298855;28;20139;-89
2024/01/04 04:51:10;;;;;;;16.77;2.20;;;7.40;99.90;;;;;;6281211;28;20446;-90
2024/01/04 04:54:11;;;;;;;10.57;2.13;;;7.30;99.90;;;;;;6308561;22;20515;-84
2024/01/04 04:57:13;;;;;;;12.50;1.85;;;7.40;99.90;;;;;;6323399;28;20057;-85
2024/01/04 05:00:15;;;;;;;14.07;2.05;;;7.40;99.90;;;;;;6313580;28;20441;-85
2024/01/04 05:03:17;;;;;;;18.00;2.10;;;7.40;99.90;;;;;;6318036;28;20190;-85
2024/01/04 05:06:19;;;;;;;19.20;2.20;;;7.50;99.90;;;;;;6322345;28;20513;-84
2024/01/04 05:09:21;;;;;;;11.52;2.28;;;7.30;99.90;;;;;;6301292;28;20051;-85
2024/01/04 05:12:22;;;;;;;15.95;2.33;;;7.30;99.90;;;;;;6312333;28;20052;-85
2024/01/04 05:15:24;;;;;;;14.23;2.22;;;7.30;99.90;;;;;;6317324;28;20048;-85
2024/01/04 05:18:26;;;;;;;14.68;2.13;;;7.30;99.90;;;;;;6323459;28;20055;-84
2024/01/04 05:21:27;;;;;;;12.95;2.15;;;7.20;99.90;;;;;;6309411;28;20130;-86
2024/01/04 05:24:29;;;;;;;17.00;2.25;;;7.20;99.90;;;;;;6322222;28;20090;-86
2024/01/04 05:27:31;;;;;;;13.88;2.45;;;7.10;99.90;;;;;;6336968;28;20059;-85
2024/01/04 05:30:32;;;;;;;20.15;2.85;;;7.10;99.90;;;;;;6302270;28;20059;-84
2024/01/04 05:33:34;;;;;;;15.10;2.90;;;7.10;99.90;;;;;;6291711;28;20090;-86
2024/01/04 05:36:36;;;;;;;21.42;2.78;;;7.00;99.90;;;;;;6314101;28;20056;-85
2024/01/04 05:39:38;;;;;;;16.67;2.50;;;7.00;99.90;;;;;;6322370;28;20133;-86
2024/01/04 05:42:39;;;;;;;22.77;3.10;;;6.90;99.90;;;;;;6314260;28;20427;-85
2024/01/04 05:45:41;;;;;;;16.80;2.50;;;6.90;99.90;;;;;;6319789;28;20083;-86
2024/01/04 05:48:43;;;;;;;23.08;3.35;;;6.90;99.90;;;;;;6322482;28;20048;-85
2024/01/04 05:51:44;;;;;;;17.30;2.40;;;6.90;99.90;;;;;;6302688;28;20048;-85
2024/01/04 05:54:46;;;;;;;20.33;3.38;;;6.90;99.90;;;;;;6345970;28;20495;-86
2024/01/04 05:57:48;;;;;;;11.52;2.03;;;6.80;99.90;;;;;;6304846;28;20052;-86
2024/01/04 06:00:49;;;;;;;16.58;2.42;;;6.80;99.90;;;;;;6324205;27;20047;-85
2024/01/04 06:03:51;;;;;;;12.23;2.70;;;6.80;99.90;;;;;;6329274;28;20043;-85
2024/01/04 06:06:53;;;;;;;15.90;2.50;;;6.70;99.90;;;;;;6338107;27;20071;-86
2024/01/04 06:09:54;;;;;;;11.20;2.10;;;6.80;99.90;;;;;;6329205;28;20055;-86
2024/01/04 06:12:56;;;;;;;21.85;2.53;;;6.70;99.90;;;;;;6357596;27;20061;-86
2024/01/04 06:15:58;;;;;;;13.57;2.70;;;6.60;99.90;;;;;;6342092;27;20047;-86
2024/01/04 06:18:59;;;;;;;13.52;2.70;;;6.50;99.90;;;;;;6342673;28;20055;-86
2024/01/04 06:22:01;;;;;;;16.92;2.42;;;6.50;99.90;;;;;;6346712;27;20410;-84
2024/01/04 06:25:03;;;;;;;17.90;2.83;;;6.50;99.90;;;;;;6341990;27;20055;-85
2024/01/04 06:28:04;;;;;;;15.85;2.70;;;6.40;99.90;;;;;;6326198;28;20416;-85
2024/01/04 06:31:06;;;;;;;18.27;2.53;;;6.40;99.90;;;;;;6347180;27;20066;-86
2024/01/04 06:34:08;;;;;;;21.15;2.97;;;6.30;99.90;;;;;;6351041;27;20479;-85
2024/01/04 06:37:10;;;;;;;17.35;2.22;;;6.30;99.90;;;;;;6359240;27;20047;-86
2024/01/04 06:40:12;;;;;;;16.95;2.70;;;6.30;99.90;;;;;;6328459;28;20079;-85
2024/01/04 06:43:14;;;;;;;13.23;2.60;;;6.30;99.90;;;;;;6339868;28;20047;-86
2024/01/04 06:46:16;;;;;;;16.95;2.53;;;6.20;99.90;;;;;;6341316;28;20073;-86
2024/01/04 06:49:18;;;;;;;15.30;2.08;;;6.40;99.90;;;;;;6367004;27;20054;-84
2024/01/04 06:52:20;;;;;;;14.15;2.47;;;6.20;99.90;;;;;;6344622;27;20415;-85
2024/01/04 06:55:23;;;;;;;12.48;2.30;;;5.90;99.90;;;;;;6347072;28;20047;-86
2024/01/04 06:58:24;;;;;;;19.90;2.78;;;6.30;99.90;;;;;;6342999;28;20515;-85
2024/01/04 07:01:26;;;;;;;15.27;2.25;;;6.10;99.90;;;;;;6328637;28;20043;-85
2024/01/04 07:04:28;;;;;;;13.93;2.95;;;6.10;99.90;;;;;;6322170;28;20051;-85
2024/01/04 07:07:29;;;;;;;22.98;2.40;;;6.20;99.90;;;;;;6345750;28;20048;-85
2024/01/04 07:10:31;;;;;;;17.75;3.05;;;6.20;99.90;;;;;;6339493;27;20047;-85
2024/01/04 07:13:32;;;;;;;16.20;2.65;;;6.30;99.90;;;;;;6337184;27;20044;-85
2024/01/04 07:16:34;;;;;;;20.63;2.88;;;6.20;99.90;;;;;;6345566;28;20415;-86
2024/01/04 07:19:36;;;;;;;19.75;2.58;;;6.10;99.90;;;;;;6343740;28;20207;-85
2024/01/04 07:22:37;;;;;;;19.50;2.70;;;6.20;99.90;;;;;;6346438;27;20054;-85
2024/01/04 07:25:39;;;;;;;15.85;2.58;;;6.30;99.90;;;;;;6319694;28;20047;-85
2024/01/04 07:28:41;;;;;;;20.60;2.75;;;6.20;99.90;;;;;;6316298;27;20054;-86
2024/01/04 07:31:42;;;;;;;11.75;2.17;;;6.10;99.90;;;;;;6346471;28;20064;-86
2024/01/04 07:34:44;;;;;;;17.15;2.50;;;6.10;99.90;;;;;;6319503;28;20411;-85
2024/01/04 07:37:58;;;;;;;22.55;3.05;;;6.00;99.90;;;;;;6303817;28;20052;-84
2024/01/04 07:41:00;;;;;;;18.65;2.67;;;5.90;99.90;;;;;;6339283;27;20054;-83
2024/01/04 07:44:02;;;;;;;15.27;2.75;;;5.90;99.90;;;;;;6345001;27;20498;-85
2024/01/04 07:47:03;;;;;;;16.40;2.42;;;5.90;99.90;;;;;;6316939;28;20055;-85
2024/01/04 07:50:05;;;;;;;14.05;2.45;;;5.90;99.90;;;;;;6322399;28;20058;-85
2024/01/04 07:53:07;;;;;;;22.75;2.17;;;5.90;99.90;;;;;;6328242;28;20197;-83
2024/01/04 07:56:09;;;;;;;14.13;2.60;;;5.90;99.90;;;;;;6345549;28;20078;-84
2024/01/04 07:59:11;;;;;;;17.45;2.90;;;6.00;99.90;;;;;;6347331;27;20051;-83
2024/01/04 08:02:12;;;;;;;14.40;2.40;;;5.90;99.90;;;;;;6346277;28;20051;-86
2024/01/04 08:05:14;;;;;;;12.80;2.30;;;5.90;99.90;;;;;;6335448;28;20161;-86
2024/01/04 08:08:16;;;;;;;17.35;2.63;;;5.90;99.90;;;;;;6335371;28;20051;-85
2024/01/04 08:11:18;;;;;;;16.25;2.63;;;5.90;99.90;;;;;;6345417;28;20056;-86
2024/01/04 08:14:19;;;;;;;11.07;2.38;;;6.20;99.90;;;;;;6342916;28;20059;-86
2024/01/04 08:17:21;;;;;;;14.65;2.75;;;6.00;99.90;;;;;;6315685;28;20051;-85
2024/01/04 08:20:23;;;;;;;19.48;2.38;;;6.00;99.90;;;;;;6350178;27;20055;-86
2024/01/04 08:23:25;;;;;;;13.95;2.10;;;5.90;99.90;;;;;;6340535;27;20058;-83
2024/01/04 08:26:27;;;;;;;17.80;2.33;;;5.90;99.90;;;;;;6344428;28;20498;-84
2024/01/04 08:29:28;;;;;;;12.10;2.00;;;5.90;99.90;;;;;;6325734;27;20047;-84
2024/01/04 08:32:30;;;;;;;16.45;2.67;;;5.90;99.90;;;;;;6332081;28;20462;-82
2024/01/04 08:35:32;;;;;;;17.20;2.70;;;6.00;99.90;;;;;;6344642;28;20071;-85
2024/01/04 08:38:34;;;;;;;19.83;2.70;;;6.00;99.90;;;;;;6326627;28;20051;-84
2024/01/04 08:41:35;;;;;;;18.35;2.67;;;6.10;99.90;;;;;;6343738;28;20051;-83
2024/01/04 08:44:37;;;;;;;17.77;2.40;;;6.20;99.90;;;;;;6333960;28;20051;-83
2024/01/04 08:47:39;;;;;;;14.90;2.38;;;6.20;99.90;;;;;;6345806;28;20077;-85
2024/01/04 08:50:41;;;;;;;15.88;2.70;;;6.40;99.90;;;;;;6343452;28;20099;-86
2024/01/04 08:53:43;;;;;;;13.60;2.33;;;6.50;99.90;;;;;;6370544;27;20514;-84
2024/01/04 08:56:45;;;;;;;15.18;2.38;;;6.80;99.90;;;;;;6350942;27;20048;-85
2024/01/04 08:59:47;;;;;;;17.10;2.83;;;6.60;99.90;;;;;;6336712;28;20043;-88
2024/01/04 09:02:49;;;;;;;15.75;2.10;;;6.60;99.90;;;;;;6363672;27;20054;-88
2024/01/04 09:05:50;;;;;;;10.85;2.13;;;6.60;99.90;;;;;;6347772;28;20055;-87
2024/01/04 09:08:54;;;;;;;14.57;2.22;;;6.70;99.90;;;;;;6369193;28;20056;-85
2024/01/04 09:11:56;;;;;;;17.35;2.80;;;6.70;99.90;;;;;;6353960;28;20047;-90
2024/01/04 09:14:58;;;;;;;15.30;2.58;;;7.00;99.90;;;;;;6342459;28;20047;-90
2024/01/04 09:17:59;;;;;;;17.52;2.28;;;6.80;99.90;;;;;;6344320;28;20066;-87
2024/01/04 09:21:02;;;;;;;15.07;1.90;;;6.90;99.90;;;;;;6378613;28;20051;-87
2024/01/04 09:24:03;;;;;;;12.90;2.25;;;6.90;99.90;;;;;;6343940;28;20069;-86
2024/01/04 09:27:05;;;;;;;16.48;2.55;;;7.20;99.90;;;;;;6341981;28;20043;-86
2024/01/04 09:30:08;;;;;;;15.23;2.72;;;7.00;99.90;;;;;;6346899;28;20055;-87
2024/01/04 09:33:11;;;;;;;15.25;2.33;;;7.00;99.90;;;;;;6354053;28;20481;-92
2024/01/04 09:36:13;;;;;;;20.92;2.90;;;7.00;99.90;;;;;;6318798;28;20047;-89
2024/01/04 09:39:17;;;;;;;11.23;2.72;;;7.10;99.90;;;;;;6331122;28;20135;-88
2024/01/04 09:42:20;;;;;;;16.27;2.83;;;7.10;99.90;;;;;;6308190;28;20083;-87
2024/01/04 09:45:21;;;;;;;16.58;2.75;;;7.50;99.90;;;;;;6350959;28;20047;-86
2024/01/04 09:48:23;;;;;;;13.93;2.67;;;7.50;99.90;;;;;;6342032;28;20039;-87
2024/01/04 09:51:37;;;;;;;14.82;2.40;;;8.30;99.90;;;;;;6345135;28;20460;-86
2024/01/04 09:54:40;;;;;;;15.43;2.15;;;9.10;99.90;;;;;;6339390;28;20451;-90
2024/01/04 09:57:42;;;;;;;17.38;2.42;;;9.90;99.90;;;;;;6342502;27;20058;-85
2024/01/04 10:00:56;;;;;;;14.95;2.80;;;9.70;97.40;;;;;;6343862;27;20050;-87
2024/01/04 10:08:03;;;;;;;13.63;2.85;;;9.40;97.20;;;;;;6362653;27;20031;-88
2024/01/04 10:11:05;;;;;;;17.38;3.10;;;9.50;96.50;;;;;;6350142;28;20092;-88
2024/01/04 10:14:06;;;;;;;10.27;2.22;;;9.80;92.90;;;;;;6348221;28;20060;-86
2024/01/04 10:17:11;;;;;;;13.88;2.33;;;9.70;95.10;;;;;;6364145;27;20051;-86
2024/01/04 10:20:13;;;;;;;10.02;2.40;;;10.00;93.40;;;;;;6351374;27;20430;-85
2024/01/04 10:23:16;;;;;;;17.33;2.38;;;10.20;92.60;;;;;;6331442;28;20495;-85
2024/01/04 10:26:18;;;;;;;9.52;1.77;;;10.50;90.10;;;;;;6332096;27;20059;-84
2024/01/04 10:29:20;;;;;;;10.20;1.85;;;10.50;90.60;;;;;;6346243;27;20423;-88
2024/01/04 10:32:23;;;;;;;8.85;1.42;;;10.80;87.40;;;;;;6344321;27;20055;-92
2024/01/04 10:35:29;;;;;;;12.18;1.90;;;10.90;66.00;;;;;;6311084;28;20058;-92
2024/01/04 10:38:31;;;;;;;13.13;1.83;;;11.50;64.20;;;;;;6336372;28;20048;-88
2024/01/04 10:41:33;;;;;;;9.57;1.60;;;11.10;68.70;;;;;;6329329;28;20579;-86
2024/01/04 10:44:35;;;;;;;14.77;1.60;;;10.90;70.00;;;;;;6317265;28;20629;-83
2024/01/04 10:47:37;;;;;;;11.60;1.63;;;11.00;80.30;;;;;;6329478;28;20201;-88
2024/01/04 10:50:38;;;;;;;15.05;2.45;;;11.20;65.90;;;;;;6339482;28;20048;-87
2024/01/04 10:53:40;;;;;;;10.93;1.85;;;11.10;69.00;;;;;;6316407;28;20415;-85
2024/01/04 10:56:41;;;;;;;14.00;1.65;;;11.20;80.40;;;;;;6346509;28;20047;-85
2024/01/04 10:59:43;;;;;;;20.50;2.50;;;11.20;70.00;;;;;;6317370;28;20048;-86
2024/01/04 11:02:46;;;;;;;18.05;2.88;;;10.90;69.20;;;;;;6330446;28;20047;-86
2024/01/04 11:05:48;;;;;;;16.08;2.83;;;10.70;67.90;;;;;;6305447;28;20075;-85
2024/01/04 11:08:52;;;;;;;12.82;2.38;;;10.30;72.20;;;;;;6330176;28;20055;-89
2024/01/04 11:11:54;;;;;;;11.50;2.20;;;10.20;84.10;;;;;;6347311;28;20055;-89
2024/01/04 11:14:56;;;;;;;13.95;2.22;;;9.80;87.20;;;;;;6321534;28;20044;-87
2024/01/04 11:17:59;;;;;;;16.02;2.25;;;9.90;91.00;;;;;;6329343;28;20074;-86
2024/01/04 11:21:00;;;;;;;14.32;2.67;;;9.90;90.30;;;;;;6324867;28;20066;-90
2024/01/04 11:24:06;;;;;;;13.57;2.80;;;9.90;91.00;;;;;;6329889;27;20043;-88
2024/01/04 11:27:09;;;;;;;13.00;2.55;;;9.80;90.50;;;;;;6360541;27;20062;-86
2024/01/04 11:30:10;;;;;;;19.08;3.08;;;9.80;90.60;;;;;;6330787;28;20070;-88
2024/01/04 11:33:13;;;;;;;14.93;2.40;;;9.90;90.50;;;;;;6334171;28;20052;-93
2024/01/04 11:36:15;;;;;;;17.33;3.17;;;9.90;91.50;;;;;;6334805;28;20048;-94
2024/01/04 11:39:17;;;;;;;14.10;2.60;;;10.00;91.10;;;;;;6312318;28;20071;-86
2024/01/04 11:42:19;;;;;;;18.00;3.05;;;10.00;91.70;;;;;;6329326;28;20524;-88
2024/01/04 11:45:21;;;;;;;15.32;2.55;;;10.40;91.40;;;;;;6318985;28;20096;-86
2024/01/04 11:48:23;;;;;;;15.45;2.42;;;10.00;91.50;;;;;;6345392;28;20383;-85
2024/01/04 11:51:25;;;;;;;12.38;2.40;;;10.00;92.30;;;;;;6328468;28;20047;-85
2024/01/04 11:54:26;;;;;;;20.92;2.75;;;9.70;91.90;;;;;;6344754;28;20067;-87
2024/01/04 11:57:28;;;;;;;11.18;2.25;;;9.60;92.40;;;;;;6330377;27;20047;-85
2024/01/04 12:00:30;;;;;;;15.05;2.50;;;9.70;92.90;;;;;;6342468;27;20051;-87
2024/01/04 12:03:32;;;;;;;14.65;2.50;;;9.70;90.60;;;;;;6344659;27;20149;-88
2024/01/04 12:06:33;;;;;;;18.65;2.85;;;9.60;91.60;;;;;;6325983;28;20048;-90
2024/01/04 12:09:35;;;;;;;16.17;2.88;;;9.60;92.00;;;;;;6345630;28;20140;-87
2024/01/04 12:12:37;;;;;;;17.58;2.38;;;9.60;92.80;;;;;;6338355;28;20054;-91
2024/01/04 12:15:38;;;;;;;13.27;2.35;;;9.60;92.60;;;;;;6325305;28;20132;-88
2024/01/04 12:18:43;;;;;;;17.20;2.72;;;9.60;93.30;;;;;;6326208;28;20047;-88
2024/01/04 12:21:48;;;;;;;18.85;2.80;;;9.70;93.70;;;;;;6328200;28;20513;-88
2024/01/04 12:24:50;;;;;;;19.02;3.83;;;9.70;93.70;;;;;;6347882;28;20091;-92
2024/01/04 12:27:52;;;;;;;16.55;3.10;;;9.70;94.60;;;;;;6321570;28;20051;-87
2024/01/04 12:30:54;;;;;;;15.57;2.63;;;9.70;92.40;;;;;;6327942;28;20043;-87
2024/01/04 12:33:58;;;;;;;13.82;2.70;;;9.60;93.10;;;;;;6304355;28;20054;-85
2024/01/04 12:37:00;;;;;;;12.35;2.90;;;9.70;93.70;;;;;;6332331;28;20055;-92
2024/01/04 12:40:01;;;;;;;19.73;3.25;;;9.60;93.80;;;;;;6346393;28;20051;-89
2024/01/04 12:43:08;;;;;;;21.60;3.08;;;9.70;94.30;;;;;;6329885;27;20043;-92
2024/01/04 12:46:10;;;;;;;13.98;2.50;;;9.70;94.80;;;;;;6337197;28;20076;-91
2024/01/04 12:49:12;;;;;;;17.48;3.42;;;9.70;94.20;;;;;;6332100;28;20058;-92
2024/01/04 12:52:19;;;;;;;19.70;2.85;;;9.80;93.70;;;;;;6317268;28;20055;-94
2024/01/04 12:55:21;;;;;;;13.93;3.22;;;9.70;95.60;;;;;;6332524;28;20403;-91
2024/01/04 12:58:23;;;;;;;14.65;3.42;;;9.90;95.30;;;;;;6325124;28;20616;-90
2024/01/04 13:01:24;;;;;;;15.48;3.58;;;9.60;95.20;;;;;;6336142;27;20365;-89
2024/01/04 13:04:26;;;;;;;12.52;2.90;;;9.60;94.90;;;;;;6350444;27;20075;-88
2024/01/04 13:07:28;;;;;;;13.82;2.90;;;9.50;96.30;;;;;;6316891;28;20483;-87
2024/01/04 13:10:30;;;;;;;15.98;3.30;;;9.50;97.00;;;;;;6345668;28;20101;-92
2024/01/04 13:13:32;;;;;;;17.83;3.38;;;9.40;97.50;;;;;;6332646;28;20074;-86
2024/01/04 13:16:34;;;;;;;23.50;3.75;;;9.40;96.90;;;;;;6315255;28;20438;-88
2024/01/04 13:19:35;;;;;;;18.75;3.88;;;9.30;98.20;;;;;;6325552;28;20525;-87
2024/01/04 13:22:39;;;;;;;15.45;2.88;;;9.30;98.90;;;;;;6343993;28;20048;-90
2024/01/04 13:25:40;;;;;;;16.67;3.28;;;9.30;98.40;;;;;;6325170;28;20067;-85
2024/01/04 13:28:42;;;;;;;15.38;3.20;;;9.30;98.60;;;;;;6322905;28;20051;-86
2024/01/04 13:31:44;;;;;;;14.02;3.22;;;9.30;97.10;;;;;;6327731;28;20450;-86
2024/01/04 13:34:45;;;;;;;19.85;3.20;;;9.40;99.30;;;;;;6350831;28;20047;-91
2024/01/04 13:37:48;;;;;;;18.15;3.20;;;9.50;98.40;;;;;;6333058;28;20063;-91
2024/01/04 13:40:50;;;;;;;15.35;3.45;;;9.60;98.00;;;;;;6330465;28;20051;-89
2024/01/04 13:43:51;;;;;;;18.35;3.45;;;9.60;98.00;;;;;;6312775;28;20055;-87
2024/01/04 13:46:58;;;;;;;16.35;3.50;;;9.60;98.00;;;;;;6319180;28;20058;-87
2024/01/04 13:49:59;;;;;;;16.20;3.97;;;9.60;97.90;;;;;;6317782;27;20050;-95
2024/01/04 13:53:04;;;;;;;18.88;4.60;;;9.70;97.90;;;;;;6331500;28;20081;-87
2024/01/04 13:56:05;;;;;;;16.60;4.50;;;9.50;95.80;;;;;;6330495;28;20059;-92
2024/01/04 13:59:07;;;;;;;19.48;4.78;;;9.70;96.80;;;;;;6316448;28;20050;-92
2024/01/04 14:02:09;;;;;;;23.23;4.88;;;9.70;97.60;;;;;;6322704;28;20047;-90
2024/01/04 14:05:10;;;;;;;18.58;4.38;;;9.70;97.70;;;;;;6325660;28;20043;-85
2024/01/04 14:08:12;;;;;;;18.52;3.55;;;9.80;97.70;;;;;;6327180;28;20456;-87
2024/01/04 14:11:14;;;;;;;19.23;3.72;;;9.80;97.70;;;;;;6330693;28;20047;-87
2024/01/04 14:14:16;;;;;;;22.20;3.97;;;9.80;97.20;;;;;;6327259;28;20071;-89
2024/01/04 14:17:21;;;;;;;21.95;4.00;;;9.60;97.30;;;;;;6328034;28;20048;-89
2024/01/04 14:20:28;;;;;;;17.50;3.47;;;9.50;98.00;;;;;;6329887;28;20117;-88
2024/01/04 14:23:29;;;;;;;25.00;4.13;;;9.50;98.80;;;;;;6347908;28;20593;-84
2024/01/04 14:26:31;;;;;;;17.70;3.63;;;9.50;99.30;;;;;;6315056;28;20086;-89
2024/01/04 14:29:34;;;;;;;20.05;3.90;;;9.50;99.70;;;;;;6349608;27;20063;-87
2024/01/04 14:32:35;;;;;;;23.15;3.60;;;9.50;99.90;;;;;;6331069;27;20055;-88
2024/01/04 14:35:39;;;;;;;18.85;3.85;;;9.50;99.80;;;;;;6367671;27;20132;-86
2024/01/04 14:38:41;;;;;;;19.80;3.90;;;9.40;99.90;;;;;;6354957;27;20576;-90
2024/01/04 14:41:42;;;;;;;17.67;4.05;;;9.40;99.90;;;;;;6337199;28;20047;-88
2024/01/04 14:44:44;;;;;;;22.95;4.03;;;9.40;99.90;;;;;;6330352;27;20436;-88
2024/01/04 14:47:46;;;;;;;16.63;3.70;;;9.30;99.90;;;;;;6332101;27;20460;-85
2024/01/04 14:50:48;;;;;;;16.95;3.42;;;9.30;99.90;;;;;;6341159;27;20043;-87
2024/01/04 14:53:49;;;;;;;15.95;3.95;;;9.20;99.90;;;;;;6322465;28;20079;-88
2024/01/04 14:56:51;;;;;;;22.08;3.95;;;9.20;99.90;;;;;;6351483;27;20062;-88
2024/01/04 14:59:53;;;;;;;15.50;3.78;;;9.20;99.90;;;;;;6353884;27;20048;-88
2024/01/04 15:02:55;;;;;;;18.75;3.47;;;9.10;99.90;;;;;;6342393;27;20574;-89
2024/01/04 15:09:23;;;;;;;26.50;4.47;;;9.00;99.90;;;;;;6342077;27;20051;-84
2024/01/04 15:12:25;;;;;;;17.63;3.33;;;9.00;99.90;;;;;;6332051;27;20066;-84
2024/01/04 15:15:30;;;;;;;20.77;3.50;;;8.80;99.90;;;;;;6359099;27;20053;-84
2024/01/04 15:18:38;;;;;;;22.55;3.58;;;8.70;99.90;;;;;;6338148;27;20247;-84
2024/01/04 15:21:40;;;;;;;21.40;3.92;;;8.60;99.90;;;;;;6334007;28;20161;-86
2024/01/04 15:24:42;;;;;;;20.10;3.53;;;8.50;99.90;;;;;;6346186;28;20047;-89
2024/01/04 15:27:44;;;;;;;18.40;3.17;;;8.50;99.90;;;;;;6313340;28;20120;-88
2024/01/04 15:30:46;;;;;;;22.80;4.30;;;8.50;99.90;;;;;;6315061;28;20194;-92
2024/01/04 15:33:50;;;;;;;23.20;3.95;;;8.30;99.90;;;;;;6335383;28;20071;-94
2024/01/04 15:36:53;;;;;;;22.45;4.00;;;8.30;99.90;;;;;;6367247;28;20476;-94
2024/01/04 15:39:55;;;;;;;23.20;4.28;;;8.20;99.90;;;;;;6339756;28;20043;-95
2024/01/04 15:42:59;;;;;;;18.63;4.22;;;8.20;99.90;;;;;;6344562;28;20048;-95
2024/01/04 15:46:02;;;;;;;20.08;4.28;;;8.20;99.90;;;;;;6369894;28;20058;-95
2024/01/04 15:49:04;;;;;;;20.33;4.07;;;8.20;99.90;;;;;;6325691;28;20071;-93
2024/01/04 15:52:06;;;;;;;15.40;3.65;;;8.20;99.90;;;;;;6329154;28;20048;-94
2024/01/04 15:55:17;;;;;;;11.98;3.92;;;8.10;99.90;;;;;;6335067;28;20048;-85